• Join FlightAware (Why Join?)
  • Login
  • US Flag 
Gobble Gobble! 
05:45AM EST


 

Airport Tracker/Info


-or-


 

Live Flight TrackerFlight Track Log ✈ SWA2166 ✈ 11-Apr-2013 ✈ KPVD - KMCO

Flight Track Log - Related Links

Times and Time Zones

All times are in EDT time to prevent confusion due to time zone crossing. See the SWA2166 flight status page for this flight to view local times or setup timezone preferences in your user account.

Time Position Orientation Groundspeed Altitude Reporting Facility
EDT Latitude Longitude Course Direction KTS MPH feet Rate Location/Type
01:28PM 41.7311 -71.4247 75° East 157 181 800  Level Boston Center
01:30PM 41.7450 -71.3550 75° East 208 239 3,400 2,760 Climbing Boston Center
01:31PM 41.6300 -71.3181 166° South 299 344 8,700 2,820 Climbing Boston Center
01:32PM 41.5381 -71.3031 173° South 294 338 11,200 2,820 Climbing Boston Center
01:33PM 41.4422 -71.2992 178° South 333 383 14,300 3,120 Climbing Boston Center
01:34PM 41.3825 -71.3861 228° Southwest 308 354 17,400 2,400 Climbing Boston Center
01:35PM 41.3314 -71.4808 234° Southwest 324 373 19,200 1,860 Climbing Boston Center
01:36PM 41.2656 -71.5867 230° Southwest 341 392 21,300 2,280 Climbing Boston Center
01:37PM 41.2078 -71.6842 228° Southwest 359 413 23,900 2,280 Climbing Boston Center
01:38PM 41.1927 -71.7360 228° Southwest  Level FlightAware Approximate
01:38PM 41.1336 -71.7953 228° Southwest 381 438 25,800  Level Boston Center
01:39PM 41.0528 -71.8978 224° Southwest 394 453 27,700 1,920 Climbing Boston Center
01:40PM 40.9617 -72.0169 225° Southwest 416 479 29,700 1,980 Climbing Boston Center
01:41PM 40.8786 -72.1300 226° Southwest 416 479 31,700 1,440 Climbing Boston Center
01:43PM 40.7945 -72.2736 223° Southwest  Level FlightAware Approximate
01:44PM 40.6331 -72.4375 223° Southwest 426 490 35,500  Level Boston Center
01:45PM 40.5436 -72.5467 223° Southwest 426 490 37,100 1,200 Climbing Boston Center
01:46PM 40.4642 -72.6528 225° Southwest 426 490 38,000 420 Climbing Boston Center
01:47PM 40.3806 -72.7642 225° Southwest 425 489 38,000  Level Boston Center
01:48PM 40.2947 -72.8672 222° Southwest 425 489 38,000  Level Boston Center
01:49PM 40.2111 -72.9753 225° Southwest 425 489 38,000  Level Boston Center
01:50PM 40.2275 -72.9701 223° Southwest  Level FlightAware Approximate
01:50PM 40.1250 -73.0886 225° Southwest 430 495 38,000  Level Boston Center
01:52PM 39.9481 -73.3072 223° Southwest 439 505 38,000  Level Washington Center
01:53PM 39.8522 -73.4211 222° Southwest 439 505 38,000  Level Washington Center
01:54PM 39.7850 -73.5069 224° Southwest 434 499 38,000  Level Washington Center
01:55PM 39.6931 -73.6175 223° Southwest 428 493 38,000  Level Washington Center
01:56PM 39.6072 -73.7222 223° Southwest 428 493 38,000  Level Washington Center
01:57PM 39.5253 -73.8267 225° Southwest 423 487 38,000  Level Washington Center
01:58PM 39.4394 -73.9308 223° Southwest 423 487 38,000  Level Washington Center
01:59PM 39.3533 -74.0322 222° Southwest 423 487 38,000  Level Washington Center
02:00PM 39.2692 -74.1358 224° Southwest 423 487 38,000  Level Washington Center
02:01PM 39.1808 -74.2419 223° Southwest 423 487 38,000  Level Washington Center
02:02PM 39.0944 -74.3481 224° Southwest 423 487 38,000  Level Washington Center
02:03PM 39.0100 -74.4511 223° Southwest 423 487 38,000  Level Washington Center
02:04PM 38.9233 -74.5511 222° Southwest 423 487 38,000  Level Washington Center
02:05PM 38.8325 -74.6483 220° Southwest 423 487 38,000  Level Washington Center
02:06PM 38.7414 -74.7425 219° Southwest 428 493 38,000  Level Washington Center
02:07PM 38.6503 -74.8394 220° Southwest 433 498 38,000  Level Washington Center
02:08PM 38.5592 -74.9358 220° Southwest 427 491 38,000  Level Washington Center
02:09PM 38.4594 -75.0189 213° Southwest 427 491 38,000  Level Washington Center
02:10PM 38.3619 -75.1044 215° Southwest 427 491 38,000  Level Washington Center
02:11PM 38.2642 -75.1925 215° Southwest 438 504 38,000  Level Washington Center
02:12PM 38.1622 -75.2800 214° Southwest 444 511 38,000  Level Washington Center
02:13PM 38.0644 -75.3650 214° Southwest 444 511 38,000  Level Washington Center
02:14PM 37.9644 -75.4522 215° Southwest 444 511 38,000  Level Washington Center
02:15PM 37.8603 -75.5339 212° Southwest 444 511 38,000  Level Washington Center
02:16PM 37.7622 -75.6233 216° Southwest 444 511 38,000  Level Washington Center
02:17PM 37.6622 -75.7047 213° Southwest 444 511 38,000  Level Washington Center
02:18PM 37.5619 -75.7883 213° Southwest 444 511 38,000  Level Washington Center
02:19PM 37.4617 -75.8717 213° Southwest 444 511 38,000  Level Washington Center
02:20PM 37.3614 -75.9550 213° Southwest 444 511 38,000  Level Washington Center
02:21PM 37.2631 -76.0381 214° Southwest 439 505 38,000  Level Washington Center
02:22PM 37.1647 -76.1208 214° Southwest 439 505 38,000  Level Washington Center
02:23PM 37.0578 -76.1983 210° Southwest 439 505 38,000  Level Washington Center
02:24PM 36.9594 -76.2808 214° Southwest 439 505 38,000  Level Washington Center
02:25PM 36.8608 -76.3628 214° Southwest 434 499 38,000  Level Washington Center
02:26PM 36.7622 -76.4422 213° Southwest 434 499 38,000  Level Washington Center
02:27PM 36.6614 -76.5319 216° Southwest 434 499 38,000  Level Washington Center
02:28PM 36.5628 -76.6083 212° Southwest 440 506 38,000  Level Washington Center
02:29PM 36.4619 -76.6897 213° Southwest 440 506 38,000  Level Washington Center
02:30PM 36.3611 -76.7706 213° Southwest 440 506 38,000  Level Washington Center
02:31PM 36.2642 -76.8492 213° Southwest 435 501 38,000  Level Washington Center
02:32PM 36.1653 -76.9272 213° Southwest 435 501 38,000  Level Washington Center
02:33PM 36.0664 -77.0053 213° Southwest 430 495 38,000  Level Washington Center
02:34PM 35.9694 -77.0831 213° Southwest 430 495 38,000  Level Washington Center
02:35PM 35.8786 -77.1608 215° Southwest 418 481 38,000  Level Washington Center
02:36PM 35.7775 -77.2383 212° Southwest 418 481 38,000  Level Washington Center
02:37PM 35.6825 -77.3131 213° Southwest 418 481 38,000  Level Washington Center
02:38PM 35.5856 -77.3900 213° Southwest 418 481 38,000  Level Washington Center
02:39PM 35.4883 -77.4669 213° Southwest 418 481 38,000  Level Washington Center
02:40PM 35.3933 -77.5411 212° Southwest 418 481 38,000  Level Washington Center
02:41PM 35.3019 -77.6281 218° Southwest 424 488 38,000  Level Washington Center
02:42PM 35.2169 -77.7175 221° Southwest 414 476 38,000  Level Washington Center
02:43PM 35.1300 -77.8067 220° Southwest 419 482 38,000  Level Washington Center
02:44PM 35.0406 -77.8981 220° Southwest 414 476 38,000  Level Washington Center
02:46PM 34.8669 -78.0856 222° Southwest 415 478 38,000  Level Jacksonville Center
02:47PM 34.7742 -78.1689 216° Southwest 415 478 38,000  Level Jacksonville Center
02:48PM 34.6922 -78.2644 224° Southwest 415 478 38,000  Level Jacksonville Center
02:49PM 34.6017 -78.3550 219° Southwest 415 478 38,000  Level Jacksonville Center
02:50PM 34.5108 -78.4403 218° Southwest 415 478 38,000  Level Jacksonville Center
02:51PM 34.4264 -78.5303 221° Southwest 415 478 38,000  Level Jacksonville Center
02:52PM 34.3378 -78.6178 219° Southwest 415 478 38,000 -60 Level Jacksonville Center
02:53PM 34.2511 -78.7100 221° Southwest 415 478 37,900 -1,500 Descending Jacksonville Center
02:54PM 34.1622 -78.7944 218° Southwest 415 478 35,000 -2,040 Descending Jacksonville Center
02:55PM 34.0711 -78.8864 220° Southwest 420 483 33,900 -1,500 Descending Jacksonville Center
02:56PM 33.9681 -78.9889 220° Southwest 435 501 32,000 -960 Descending Jacksonville Center
02:57PM 33.8747 -79.0806 219° Southwest 441 507 32,000  Level Jacksonville Center
02:58PM 33.7817 -79.1719 219° Southwest 441 507 32,000  Level Jacksonville Center
02:59PM 33.6925 -79.2633 220° Southwest 441 507 32,000  Level Jacksonville Center
03:00PM 33.5989 -79.3542 219° Southwest 441 507 32,000  Level Jacksonville Center
03:01PM 33.5056 -79.4453 219° Southwest 441 507 32,000  Level Jacksonville Center
03:02PM 33.4119 -79.5358 219° Southwest 441 507 32,000  Level Jacksonville Center
03:03PM 33.3183 -79.6239 218° Southwest 441 507 32,000  Level Jacksonville Center
03:04PM 33.2369 -79.7089 221° Southwest 441 507 32,000  Level Jacksonville Center
03:05PM 33.1433 -79.7989 219° Southwest 441 507 32,000  Level Jacksonville Center
03:06PM 33.0472 -79.8867 217° Southwest 441 507 32,000  Level Jacksonville Center
03:07PM 32.9556 -79.9764 219° Southwest 441 507 32,000  Level Jacksonville Center
03:08PM 32.8572 -80.0636 217° Southwest 441 507 32,000  Level Jacksonville Center
03:09PM 32.7544 -80.1383 211° Southwest 441 507 32,000  Level Jacksonville Center
03:10PM 32.6539 -80.2156 213° Southwest 441 507 32,000 -300 Level Jacksonville Center
03:11PM 32.5511 -80.2925 212° Southwest 441 507 31,400 -840 Descending Jacksonville Center
03:12PM 32.4503 -80.3642 211° Southwest 435 501 30,400 -720 Descending Jacksonville Center
03:13PM 32.3494 -80.4383 212° Southwest 430 495 30,000 -240 Descending Jacksonville Center
03:14PM 32.2486 -80.5147 213° Southwest 430 495 30,000  Level Jacksonville Center
03:15PM 32.1369 -80.5692 202° Southwest 430 495 30,000  Level Jacksonville Center
03:16PM 32.0064 -80.6214 199° South 447 514 30,000  Level Jacksonville Center
03:17PM 31.8881 -80.6683 199° South 455 524 30,000 -120 Level Jacksonville Center
03:18PM 31.7783 -80.7103 198° South 455 524 29,800 -660 Descending Jacksonville Center
03:19PM 31.6475 -80.7619 199° South 460 529 28,700 -900 Descending Jacksonville Center
03:20PM 31.5314 -80.8086 199° South 455 524 28,000 -360 Descending Jacksonville Center
03:21PM 31.4214 -80.8500 198° South 460 529 28,000  Level Jacksonville Center
03:22PM 31.2867 -80.9039 199° South 465 535 28,000  Level Jacksonville Center
03:23PM 31.1619 -80.9456 196° South 459 528 28,000  Level Jacksonville Center
03:24PM 31.0478 -80.9964 201° Southwest 459 528 28,000  Level Jacksonville Center
03:25PM 30.9253 -81.0425 198° South 459 528 28,000  Level Jacksonville Center
03:26PM 30.8050 -81.0906 199° South 459 528 28,000  Level Jacksonville Center
03:27PM 30.6825 -81.1389 199° South 464 534 28,000  Level Jacksonville Center
03:28PM 30.5533 -81.1533 186° South 458 527 28,000 -60 Level Jacksonville Center
03:29PM 30.4236 -81.1486 178° South 458 527 27,900 -600 Descending Jacksonville Center
03:30PM 30.2942 -81.1436 178° South 464 534 26,900 -1,080 Descending Jacksonville Center
03:31PM 30.1708 -81.1386 178° South 459 528 25,800 -960 Descending Jacksonville Center
03:32PM 30.0478 -81.1386 180° South 451 519 25,000 -420 Descending Jacksonville Center
03:33PM 29.9244 -81.1336 178° South 446 513 25,000  Level Jacksonville Center
03:34PM 29.8014 -81.1286 178° South 440 506 25,000 -60 Level Jacksonville Center
03:35PM 29.6781 -81.1283 180° South 440 506 24,900 -1,200 Descending Jacksonville Center
03:36PM 29.5569 -81.1258 176° South 440 506 22,600 -2,280 Descending Jacksonville Center
03:37PM 29.5509 -81.1120 176° South  Level FlightAware Approximate
03:37PM 29.4567 -81.1181 176° South 426 490 20,400  Level Jacksonville Center
03:38PM 29.3439 -81.1153 179° South 415 478 17,800 -2,580 Descending Jacksonville Center
03:39PM 29.2394 -81.1100 177° South 403 464 15,300 -2,460 Descending Jacksonville Center
03:40PM 29.1350 -81.1000 175° South 384 442 12,900 -1,560 Descending Jacksonville Center
03:41PM 29.0431 -81.0947 177° South 364 419 12,200 -480 Descending Jacksonville Center
03:42PM 28.9658 -81.0842 173° South 322 371 12,000 -900 Descending Jacksonville Center
03:43PM 28.8881 -81.0547 162° South 292 336 10,500 -1,740 Descending Jacksonville Center
03:44PM 28.8333 -81.0333 161° South 285 328 9,200 -1,740 Descending Orlando TRACON
03:45PM 28.7667 -81.0333 180° South 277 319 7,700 -1,680 Descending Orlando TRACON
03:46PM 28.7500 -81.1167 257° West 274 315 6,100 -1,380 Descending Orlando TRACON
03:47PM 28.7333 -81.1833 254° West 228 262 5,000 -960 Descending Orlando TRACON
03:48PM 28.6833 -81.2333 221° Southwest 223 257 4,100 -900 Descending Orlando TRACON
03:49PM 28.6167 -81.2667 204° Southwest 225 259 3,200 -660 Descending Orlando TRACON
03:50PM 28.5833 -81.3000 221° Southwest 199 229 2,800 -780 Descending Orlando TRACON
03:51PM 28.5167 -81.3000 180° South 187 215 1,700 -900 Descending Orlando TRACON
03:52PM 28.4833 -81.3000 180° South 136 157 1,000 -780 Descending Orlando TRACON
03:54PM 28.4294 -81.3090 180° South  Level Estimated
04:01PM 28.4294 -81.3090 180° South  Level Estimated
04:02PM 28.4294 -81.3090 180° South  Level Estimated
04:03PM 28.4294 -81.3090 180° South  Level Estimated
04:04PM 28.4294 -81.3090 180° South  Level Estimated